Sagrada, Missouri
Current Conditions -  °F | °C
As of 2:15 AM on Monday 24 Nov 2014 (Local Time) from KH21 Reporting Station
Overcast Overcast  
Wind Chill: -1°   Ceiling: 1300
Heat Index:   Visibility: 10mi
Dew Point:   Wind: 9mph
Humidity: 93%   Direction: 260°W
Pressure: 29.51"   Gusts: 18mph
Location:  38.1656°N, 93.1481°W
Report Text: KH21 240815Z AUTO 26008G16KT 10SM OVC013 03/02 A2951 RMK AO2
Loading
Personal Weather Stations






























Interactive Weather Map New forecast layout! Learn more

10-Day Weather Forecast

Advertisements
Track Severe Weather on mobile